Time;durP1;ratioP1;P1;durP2;ratioP2;P2;SDS_P1;SDS_P2;PMS_P1;PMS_P2;Temp;Humidity;BMP_temperature;BMP_pressure;BME280_temperature;BME280_humidity;BME280_pressure;Samples;Min_cycle;Max_cycle;Signal;HPM_P1;HPM_P2
2023/01/08 00:00:02;;;;;;;17.15;6.43;;;-16.70;95.40;;;;;;5072116;28;20048;-76
2023/01/08 00:02:48;;;;;;;6.78;3.40;;;-16.70;95.30;;;;;;5037516;28;20040;-78
2023/01/08 00:05:33;;;;;;;13.38;4.50;;;-16.60;95.40;;;;;;5071578;28;20046;-77
2023/01/08 00:08:36;;;;;;;12.30;6.97;;;-16.60;95.30;;;;;;5093318;28;20073;-76
2023/01/08 00:11:21;;;;;;;9.60;3.90;;;-16.50;95.30;;;;;;5095325;28;20028;-78
2023/01/08 00:14:24;;;;;;;5.60;4.32;;;-16.50;95.30;;;;;;5093455;28;20016;-77
2023/01/08 00:17:27;;;;;;;11.05;5.70;;;-16.60;95.10;;;;;;5081926;28;20496;-77
2023/01/08 00:20:11;;;;;;;7.68;6.00;;;-16.60;95.00;;;;;;5095078;28;20081;-76
2023/01/08 00:22:37;;;;;;;23.55;8.82;;;-16.60;95.00;;;;;;5095065;28;20099;-78
2023/01/08 00:25:41;;;;;;;7.57;4.75;;;-16.60;95.00;;;;;;5095030;28;20032;-78
2023/01/08 00:28:44;;;;;;;10.60;6.50;;;-16.60;95.00;;;;;;5095003;28;20026;-78
2023/01/08 00:31:28;;;;;;;6.00;3.47;;;-16.60;95.00;;;;;;5094812;28;20095;-78
2023/01/08 00:34:32;;;;;;;10.65;5.82;;;-16.60;95.10;;;;;;5060696;28;20021;-78
2023/01/08 00:37:18;;;;;;;10.80;4.63;;;-16.60;95.00;;;;;;5091347;28;20481;-80
2023/01/08 00:40:03;;;;;;;7.68;4.53;;;-16.60;95.00;;;;;;5094025;28;20127;-78
2023/01/08 00:42:48;;;;;;;9.48;5.22;;;-16.60;95.10;;;;;;5082112;28;20028;-77
2023/01/08 00:45:32;;;;;;;7.20;3.95;;;-16.50;95.10;;;;;;5094552;28;20032;-77
2023/01/08 00:48:37;;;;;;;13.98;7.55;;;-16.50;95.00;;;;;;5076103;28;20035;-77
2023/01/08 00:51:21;;;;;;;5.28;4.38;;;-16.50;94.90;;;;;;5093540;28;20028;-77
2023/01/08 00:54:25;;;;;;;9.85;3.17;;;-16.50;94.90;;;;;;5083569;28;20068;-78
2023/01/08 00:57:28;;;;;;;6.72;3.80;;;-16.50;94.90;;;;;;5086330;28;20377;-79
2023/01/08 01:00:31;;;;;;;11.20;5.68;;;-16.40;95.00;;;;;;5094297;28;20028;-78
2023/01/08 01:03:34;;;;;;;9.30;4.32;;;-16.40;94.90;;;;;;5084815;28;20075;-77
2023/01/08 01:06:19;;;;;;;6.63;4.60;;;-16.30;94.90;;;;;;5067303;28;20048;-78
2023/01/08 01:09:22;;;;;;;11.05;5.07;;;-16.30;94.80;;;;;;5039485;28;20017;-77
2023/01/08 01:12:25;;;;;;;13.35;6.72;;;-16.30;94.70;;;;;;5070965;28;20126;-76
2023/01/08 01:15:28;;;;;;;5.82;3.20;;;-16.30;94.80;;;;;;5063282;28;20025;-78
2023/01/08 01:18:13;;;;;;;7.82;4.18;;;-16.20;94.70;;;;;;5073719;28;20024;-77
2023/01/08 01:21:16;;;;;;;11.38;6.03;;;-16.20;94.70;;;;;;5059747;28;20025;-78
2023/01/08 01:24:20;;;;;;;10.88;6.65;;;-16.20;94.70;;;;;;5075136;28;20044;-78
2023/01/08 01:27:24;;;;;;;3.78;3.38;;;-16.10;94.70;;;;;;5074029;28;20121;-77
2023/01/08 01:30:27;;;;;;;6.38;3.55;;;-16.20;94.50;;;;;;5073534;28;20495;-76
2023/01/08 01:33:11;;;;;;;10.82;5.47;;;-16.10;94.50;;;;;;5062342;28;20055;-77
2023/01/08 01:36:14;;;;;;;11.75;5.13;;;-16.20;94.30;;;;;;5055199;28;20111;-78
2023/01/08 01:39:02;;;;;;;9.05;5.47;;;-16.20;94.20;;;;;;5073637;28;20121;-78
2023/01/08 01:41:49;;;;;;;7.35;4.25;;;-16.20;94.30;;;;;;5075405;28;20025;-77
2023/01/08 01:44:52;;;;;;;7.13;4.20;;;-16.20;94.30;;;;;;5041230;28;20080;-79
2023/01/08 01:47:55;;;;;;;11.65;4.20;;;-16.20;94.20;;;;;;5041168;28;20490;-77
2023/01/08 01:50:58;;;;;;;3.03;2.47;;;-16.20;94.20;;;;;;5073200;28;20494;-78
2023/01/08 01:53:48;;;;;;;11.43;5.80;;;-16.20;94.20;;;;;;5061887;28;20020;-78
2023/01/08 01:56:51;;;;;;;13.32;5.30;;;-16.20;94.30;;;;;;5072916;28;20058;-78
2023/01/08 01:59:36;;;;;;;6.35;3.45;;;-16.10;94.20;;;;;;5054789;28;20035;-79
2023/01/08 02:02:38;;;;;;;7.55;4.88;;;-16.20;94.20;;;;;;5073017;28;20020;-78
2023/01/08 02:05:41;;;;;;;8.10;3.63;;;-16.20;94.30;;;;;;5059285;28;20044;-78
2023/01/08 02:08:45;;;;;;;9.98;3.53;;;-16.20;94.20;;;;;;5072688;28;20021;-78
2023/01/08 02:12:15;;;;;;;7.18;3.55;;;-16.20;94.30;;;;;;5072749;28;20024;-76
2023/01/08 02:15:11;;;;;;;15.02;6.65;;;-16.20;94.30;;;;;;5064955;28;20079;-78
2023/01/08 02:18:14;;;;;;;9.13;4.55;;;-16.20;94.30;;;;;;5072535;28;20099;-78
2023/01/08 02:21:17;;;;;;;4.45;3.13;;;-16.20;94.30;;;;;;5061108;28;20025;-79
2023/01/08 02:24:20;;;;;;;18.45;6.65;;;-16.20;94.30;;;;;;5059017;28;20068;-78
2023/01/08 02:27:24;;;;;;;9.43;4.63;;;-16.10;94.30;;;;;;5054408;28;20028;-79
2023/01/08 02:30:27;;;;;;;11.60;4.82;;;-16.10;94.30;;;;;;5072250;28;20442;-78
2023/01/08 02:33:11;;;;;;;6.30;2.83;;;-16.00;94.40;;;;;;5054399;28;20029;-77
2023/01/08 02:36:02;;;;;;;9.52;6.85;;;-16.00;94.30;;;;;;5063115;28;20017;-77
2023/01/08 02:38:47;;;;;;;12.40;4.35;;;-16.00;94.20;;;;;;5072345;28;20115;-77
2023/01/08 02:41:32;;;;;;;8.95;4.40;;;-16.00;94.10;;;;;;5054383;28;20038;-78
2023/01/08 02:44:35;;;;;;;11.68;6.00;;;-16.10;94.10;;;;;;5042938;28;20042;-80
2023/01/08 02:47:38;;;;;;;13.23;5.70;;;-16.10;94.20;;;;;;5064369;28;20033;-77
2023/01/08 02:50:41;;;;;;;5.25;3.20;;;-16.10;94.20;;;;;;5061419;28;20020;-79
2023/01/08 02:53:38;;;;;;;7.15;2.65;;;-16.00;94.30;;;;;;5058492;28;20048;-78
2023/01/08 02:56:25;;;;;;;7.63;3.90;;;-16.00;94.40;;;;;;5053312;28;20086;-77
2023/01/08 02:59:10;;;;;;;14.82;6.22;;;-15.90;94.50;;;;;;5068529;28;20028;-76
2023/01/08 03:01:56;;;;;;;8.65;4.13;;;-16.00;94.40;;;;;;5058155;28;20031;-78
2023/01/08 03:04:59;;;;;;;5.47;3.27;;;-16.00;94.40;;;;;;5071301;28;20044;-77
2023/01/08 03:08:02;;;;;;;6.78;3.85;;;-16.00;94.40;;;;;;5072017;28;20849;-77
2023/01/08 03:10:47;;;;;;;8.40;3.92;;;-16.10;94.40;;;;;;5061050;28;20108;-77
2023/01/08 03:13:36;;;;;;;7.30;4.18;;;-16.10;94.40;;;;;;5071728;28;20032;-77
2023/01/08 03:16:24;;;;;;;6.47;2.65;;;-16.20;94.50;;;;;;5064832;28;20016;-78
2023/01/08 03:19:27;;;;;;;7.90;2.75;;;-16.20;94.50;;;;;;5059962;28;20070;-77
2023/01/08 03:21:55;;;;;;;10.32;5.25;;;-16.30;94.50;;;;;;5073359;28;20085;-78
2023/01/08 03:24:28;;;;;;;9.95;4.35;;;-16.30;94.50;;;;;;5072863;28;20024;-77
2023/01/08 03:27:31;;;;;;;8.00;3.60;;;-16.40;94.50;;;;;;5053756;28;20465;-80
2023/01/08 03:30:16;;;;;;;9.10;4.30;;;-16.40;94.50;;;;;;5072032;28;20025;-77
2023/01/08 03:33:19;;;;;;;6.27;4.10;;;-16.40;94.50;;;;;;5073109;28;20242;-76
2023/01/08 03:36:06;;;;;;;7.80;4.05;;;-16.40;94.60;;;;;;5063004;28;20297;-76
2023/01/08 03:38:54;;;;;;;5.97;2.45;;;-16.40;94.70;;;;;;5075593;28;20027;-77
2023/01/08 03:41:40;;;;;;;9.50;4.43;;;-16.30;94.80;;;;;;5075700;28;20029;-79
2023/01/08 03:44:44;;;;;;;9.52;4.88;;;-16.20;94.80;;;;;;5057696;28;20043;-77
2023/01/08 03:47:29;;;;;;;9.93;2.88;;;-16.20;94.80;;;;;;5075594;28;20032;-77
2023/01/08 03:49:59;;;;;;;7.30;3.47;;;-16.10;94.80;;;;;;5042064;28;20048;-78
2023/01/08 03:52:27;;;;;;;6.40;3.28;;;-16.00;94.80;;;;;;5074438;28;20253;-78
2023/01/08 03:55:31;;;;;;;8.98;4.10;;;-15.90;94.90;;;;;;5075473;28;20032;-77
2023/01/08 03:58:15;;;;;;;8.13;6.03;;;-15.80;94.90;;;;;;5075290;28;20020;-79
2023/01/08 04:01:18;;;;;;;7.50;3.63;;;-15.70;95.00;;;;;;5075279;28;20366;-78
2023/01/08 04:04:21;;;;;;;9.23;4.40;;;-15.70;94.90;;;;;;5065646;28;20017;-79
2023/01/08 04:07:05;;;;;;;5.35;2.95;;;-15.60;95.00;;;;;;5065858;28;20433;-79
2023/01/08 04:09:50;;;;;;;7.35;3.63;;;-15.40;95.00;;;;;;5057024;28;20025;-79
2023/01/08 04:12:53;;;;;;;3.42;2.92;;;-15.40;94.90;;;;;;5075150;28;20017;-77
2023/01/08 04:15:56;;;;;;;13.23;5.07;;;-15.30;94.90;;;;;;5061800;28;20494;-77
2023/01/08 04:18:59;;;;;;;10.23;4.97;;;-15.30;94.80;;;;;;5074815;28;20017;-78
2023/01/08 04:22:03;;;;;;;8.20;4.10;;;-15.40;94.60;;;;;;5056700;28;20024;-78
2023/01/08 04:24:47;;;;;;;11.65;4.25;;;-15.40;94.60;;;;;;5074813;28;20080;-79
2023/01/08 04:27:50;;;;;;;2.33;2.13;;;-15.40;94.60;;;;;;5061801;28;20017;-78
2023/01/08 04:30:35;;;;;;;8.88;3.67;;;-15.40;94.60;;;;;;5074667;28;20078;-79
2023/01/08 04:33:38;;;;;;;3.50;2.45;;;-15.40;94.40;;;;;;5074673;28;20024;-78
2023/01/08 04:36:42;;;;;;;10.48;4.28;;;-15.50;94.40;;;;;;5064667;28;20021;-77
2023/01/08 04:39:45;;;;;;;10.70;5.50;;;-15.50;94.40;;;;;;5061773;28;20036;-78
2023/01/08 04:42:29;;;;;;;9.80;4.88;;;-15.40;94.50;;;;;;5057074;28;20115;-78
2023/01/08 04:45:14;;;;;;;9.00;4.05;;;-15.30;94.60;;;;;;5063015;28;20037;-78
2023/01/08 04:48:17;;;;;;;16.13;6.13;;;-15.30;94.50;;;;;;5074338;28;20012;-77
2023/01/08 04:51:01;;;;;;;8.23;4.55;;;-15.30;94.50;;;;;;5069433;28;20485;-80
2023/01/08 04:53:46;;;;;;;11.32;4.63;;;-15.30;94.40;;;;;;5074364;28;20025;-77
2023/01/08 04:56:50;;;;;;;6.72;3.53;;;-15.20;94.50;;;;;;5056171;28;20020;-77
2023/01/08 04:59:53;;;;;;;9.43;4.40;;;-15.20;94.50;;;;;;5071768;28;20412;-76
2023/01/08 05:02:38;;;;;;;6.35;4.57;;;-15.20;94.50;;;;;;5074123;28;20146;-77
2023/01/08 05:05:23;;;;;;;3.50;2.75;;;-15.20;94.50;;;;;;5060809;28;20041;-76
2023/01/08 05:08:07;;;;;;;10.38;6.53;;;-15.20;94.60;;;;;;5057707;28;20025;-77
2023/01/08 05:11:10;;;;;;;8.63;4.57;;;-15.20;94.60;;;;;;5074114;28;20524;-77
2023/01/08 05:14:13;;;;;;;4.78;2.88;;;-15.10;94.70;;;;;;5060938;28;20374;-76
2023/01/08 05:17:16;;;;;;;6.93;3.28;;;-15.00;94.70;;;;;;5073637;28;20009;-79
2023/01/08 05:20:19;;;;;;;11.02;5.93;;;-15.00;94.70;;;;;;5073995;28;20090;-79
2023/01/08 05:23:23;;;;;;;13.23;5.57;;;-15.10;94.70;;;;;;5055887;28;20538;-79
2023/01/08 05:26:26;;;;;;;13.02;5.97;;;-15.00;94.70;;;;;;5042030;28;20037;-77
2023/01/08 05:29:11;;;;;;;11.68;4.63;;;-15.00;94.80;;;;;;5042394;28;20363;-77
2023/01/08 05:31:55;;;;;;;11.02;4.85;;;-15.00;94.80;;;;;;5055418;28;20031;-78
2023/01/08 05:34:39;;;;;;;9.45;4.70;;;-14.90;95.00;;;;;;5074049;28;20027;-78
2023/01/08 05:37:42;;;;;;;7.15;2.92;;;-14.90;95.00;;;;;;5075361;28;20424;-77
2023/01/08 05:40:45;;;;;;;11.90;4.30;;;-14.90;95.10;;;;;;5057955;28;20016;-79
2023/01/08 05:43:48;;;;;;;8.60;4.65;;;-14.90;95.10;;;;;;5064794;28;20016;-76
2023/01/08 05:46:33;;;;;;;9.35;5.45;;;-14.80;95.10;;;;;;5072676;28;20064;-78
2023/01/08 05:49:36;;;;;;;9.18;4.25;;;-14.80;95.00;;;;;;5072990;28;20111;-77
2023/01/08 05:52:20;;;;;;;13.45;5.45;;;-14.80;94.90;;;;;;5068209;28;20388;-78
2023/01/08 05:55:24;;;;;;;8.57;3.83;;;-14.80;94.90;;;;;;5072664;28;20017;-77
2023/01/08 05:58:10;;;;;;;5.75;3.92;;;-14.80;94.90;;;;;;5054755;28;20102;-76
2023/01/08 06:01:14;;;;;;;4.97;3.17;;;-14.80;94.90;;;;;;5055205;28;20111;-78
2023/01/08 06:04:17;;;;;;;6.57;3.88;;;-14.80;94.90;;;;;;5062328;28;20441;-78
2023/01/08 06:07:20;;;;;;;7.80;3.72;;;-14.80;94.90;;;;;;5059239;28;20102;-78
2023/01/08 06:10:05;;;;;;;12.90;4.10;;;-14.90;94.90;;;;;;5072554;28;20473;-78
2023/01/08 06:13:08;;;;;;;11.18;4.95;;;-14.90;94.80;;;;;;5072824;28;20025;-79
2023/01/08 06:16:11;;;;;;;8.85;5.20;;;-14.90;94.90;;;;;;5061836;28;20032;-78
2023/01/08 06:19:14;;;;;;;4.65;2.80;;;-14.90;94.90;;;;;;5065623;28;20357;-79
2023/01/08 06:22:17;;;;;;;11.23;5.00;;;-14.90;94.90;;;;;;5072234;28;20020;-78
2023/01/08 06:25:02;;;;;;;10.38;4.72;;;-14.80;95.00;;;;;;5066035;28;20056;-77
2023/01/08 06:27:46;;;;;;;4.97;3.53;;;-14.80;94.90;;;;;;5072766;28;20104;-76
2023/01/08 06:30:30;;;;;;;8.68;5.00;;;-14.80;94.80;;;;;;5072139;28;20016;-79
2023/01/08 06:33:15;;;;;;;5.50;3.50;;;-14.80;94.70;;;;;;5072274;28;20035;-77
2023/01/08 06:36:01;;;;;;;12.55;6.82;;;-14.90;94.80;;;;;;5066382;28;20055;-77
2023/01/08 06:39:04;;;;;;;6.83;3.40;;;-14.70;95.00;;;;;;5066487;28;20021;-77
2023/01/08 06:41:49;;;;;;;6.55;3.85;;;-14.70;95.00;;;;;;5071888;28;20094;-78
2023/01/08 06:44:33;;;;;;;3.05;2.65;;;-14.60;95.00;;;;;;5069403;28;20012;-78
2023/01/08 06:47:18;;;;;;;9.55;5.40;;;-14.60;95.00;;;;;;5072023;28;20392;-77
2023/01/08 06:50:03;;;;;;;7.68;4.15;;;-14.50;95.10;;;;;;5073876;28;20028;-78
2023/01/08 06:52:52;;;;;;;11.40;5.45;;;-14.50;95.00;;;;;;5072334;28;20024;-79
2023/01/08 06:55:57;;;;;;;17.75;5.32;;;-14.50;94.90;;;;;;5072088;28;20032;-80
2023/01/08 06:59:00;;;;;;;9.13;4.45;;;-14.50;94.80;;;;;;5050687;28;20029;-80
2023/01/08 07:01:45;;;;;;;3.63;2.80;;;-14.60;94.70;;;;;;5070581;28;20385;-77
2023/01/08 07:04:29;;;;;;;6.25;4.32;;;-14.60;94.70;;;;;;5076273;28;20032;-77
2023/01/08 07:07:14;;;;;;;7.78;5.15;;;-14.50;94.80;;;;;;5086218;28;20077;-78
2023/01/08 07:10:17;;;;;;;6.22;3.30;;;-14.60;94.80;;;;;;5070207;28;20493;-77
2023/01/08 07:13:22;;;;;;;5.22;4.03;;;-14.60;94.80;;;;;;5091987;28;20092;-79
2023/01/08 07:16:25;;;;;;;10.48;3.40;;;-14.50;94.70;;;;;;5087086;28;20043;-77
2023/01/08 07:19:10;;;;;;;5.57;3.67;;;-14.50;94.60;;;;;;5084267;28;20024;-79
2023/01/08 07:21:54;;;;;;;10.85;5.18;;;-14.60;94.50;;;;;;5090564;28;20044;-77
2023/01/08 07:24:58;;;;;;;2.97;2.25;;;-14.60;94.50;;;;;;5088496;28;20020;-80
2023/01/08 07:27:42;;;;;;;9.65;2.95;;;-14.60;94.60;;;;;;5084549;28;20028;-78
2023/01/08 07:30:27;;;;;;;11.95;6.00;;;-14.70;94.50;;;;;;5088605;28;20099;-79
2023/01/08 07:33:30;;;;;;;16.30;6.13;;;-14.70;94.60;;;;;;5091865;28;20063;-78
2023/01/08 07:36:15;;;;;;;6.22;4.88;;;-14.70;94.60;;;;;;5053700;28;20123;-79
2023/01/08 07:39:18;;;;;;;7.07;4.55;;;-14.70;94.60;;;;;;5084022;28;20020;-78
2023/01/08 07:42:03;;;;;;;5.90;3.55;;;-14.70;94.60;;;;;;5092209;28;20032;-80
2023/01/08 07:44:47;;;;;;;9.88;6.15;;;-14.80;94.60;;;;;;5078010;28;20024;-79
2023/01/08 07:47:50;;;;;;;12.23;5.15;;;-14.80;94.60;;;;;;5074875;28;20237;-79
2023/01/08 07:50:53;;;;;;;11.48;6.00;;;-14.70;94.70;;;;;;5082466;28;20017;-78
2023/01/08 07:53:56;;;;;;;4.35;3.15;;;-14.70;94.70;;;;;;5079643;28;20024;-78
2023/01/08 07:56:59;;;;;;;5.95;2.90;;;-14.70;94.70;;;;;;5091611;28;20024;-78
2023/01/08 07:59:44;;;;;;;26.00;7.20;;;-14.70;94.80;;;;;;5091400;28;20024;-78
2023/01/08 08:02:47;;;;;;;9.88;5.97;;;-14.60;94.80;;;;;;5091489;28;20032;-78
2023/01/08 08:05:50;;;;;;;8.80;3.20;;;-14.60;94.70;;;;;;5066516;28;20048;-78
2023/01/08 08:08:34;;;;;;;11.00;6.82;;;-14.60;94.80;;;;;;5071366;28;20044;-77
2023/01/08 08:11:38;;;;;;;9.10;5.35;;;-14.50;94.80;;;;;;5071388;28;20025;-78
2023/01/08 08:14:22;;;;;;;3.42;2.15;;;-14.00;95.40;;;;;;5062419;28;20416;-79
2023/01/08 08:17:07;;;;;;;11.85;6.30;;;-13.30;95.90;;;;;;5071128;28;20416;-78
2023/01/08 08:19:32;;;;;;;11.88;6.00;;;-12.70;95.10;;;;;;5074790;28;20385;-78
2023/01/08 08:22:17;;;;;;;7.35;5.60;;;-12.40;94.70;;;;;;5074867;28;20024;-79
2023/01/08 08:25:20;;;;;;;12.50;6.05;;;-12.20;93.90;;;;;;5069143;28;20032;-78
2023/01/08 08:28:24;;;;;;;7.18;5.07;;;-12.10;93.60;;;;;;5053539;28;20024;-78
2023/01/08 08:31:27;;;;;;;12.38;5.82;;;-11.70;93.50;;;;;;5049688;28;20078;-79
2023/01/08 08:34:12;;;;;;;13.85;4.97;;;-11.60;92.90;;;;;;5059607;28;20116;-79
2023/01/08 08:36:56;;;;;;;6.63;4.93;;;-11.50;92.40;;;;;;5039057;28;20020;-79
2023/01/08 08:39:59;;;;;;;9.50;5.70;;;-11.60;91.90;;;;;;5074175;28;20052;-79
2023/01/08 08:42:44;;;;;;;9.77;5.45;;;-11.80;91.50;;;;;;5066158;28;20499;-78
2023/01/08 08:45:47;;;;;;;9.95;4.30;;;-12.20;91.30;;;;;;5041320;28;20033;-79
2023/01/08 08:48:50;;;;;;;8.68;5.00;;;-12.60;91.30;;;;;;5064599;28;20021;-78
2023/01/08 08:51:54;;;;;;;6.40;3.47;;;-12.80;91.60;;;;;;5073593;28;20052;-79
2023/01/08 08:54:40;;;;;;;8.43;4.85;;;-12.80;92.10;;;;;;5076449;28;20037;-78
2023/01/08 08:57:09;;;;;;;8.40;4.97;;;-12.50;92.60;;;;;;5068630;28;20039;-78
2023/01/08 09:00:13;;;;;;;13.55;5.82;;;-12.40;92.50;;;;;;5071466;28;20131;-77
2023/01/08 09:03:16;;;;;;;8.00;4.90;;;-12.30;92.40;;;;;;5037038;28;20029;-77
2023/01/08 09:06:01;;;;;;;15.02;8.55;;;-12.00;92.50;;;;;;5066300;28;20066;-77
2023/01/08 09:09:07;;;;;;;10.90;5.20;;;-11.80;92.30;;;;;;5069684;28;20334;-83
2023/01/08 09:12:10;;;;;;;13.88;8.20;;;-11.70;92.00;;;;;;5055847;28;20032;-77
2023/01/08 09:14:55;;;;;;;9.30;6.45;;;-11.60;91.60;;;;;;5045709;28;20047;-77
2023/01/08 09:18:01;;;;;;;10.45;6.90;;;-11.40;91.90;;;;;;5074287;28;20104;-79
2023/01/08 09:21:05;;;;;;;11.93;6.75;;;-10.90;92.10;;;;;;5073566;28;20019;-81
2023/01/08 09:23:50;;;;;;;11.50;6.10;;;-10.80;91.10;;;;;;5067337;28;20528;-80
2023/01/08 09:26:34;;;;;;;10.52;7.22;;;-10.90;90.70;;;;;;5052807;28;20079;-81
2023/01/08 09:29:37;;;;;;;14.45;7.25;;;-11.10;90.70;;;;;;5070130;28;20109;-78
2023/01/08 09:32:06;;;;;;;13.38;6.75;;;-11.30;90.60;;;;;;5073018;28;20051;-79
2023/01/08 09:35:09;;;;;;;13.38;7.55;;;-11.50;90.60;;;;;;5055200;28;20477;-78
2023/01/08 09:38:12;;;;;;;14.75;7.72;;;-11.60;90.80;;;;;;5070014;28;20398;-79
2023/01/08 09:41:06;;;;;;;9.02;6.35;;;-11.80;90.90;;;;;;5055455;28;20513;-78
2023/01/08 09:44:09;;;;;;;13.85;6.82;;;-12.00;91.10;;;;;;5059083;28;20089;-78
2023/01/08 09:47:13;;;;;;;18.25;5.85;;;-12.10;91.20;;;;;;5041400;28;20033;-79
2023/01/08 09:49:47;;;;;;;8.30;4.85;;;-12.20;91.40;;;;;;5056119;28;20081;-77
2023/01/08 09:52:50;;;;;;;13.80;6.25;;;-12.30;91.60;;;;;;5073475;28;20086;-79
2023/01/08 09:55:54;;;;;;;8.13;5.07;;;-12.30;91.70;;;;;;5069120;28;20051;-78
2023/01/08 09:58:57;;;;;;;10.60;4.25;;;-12.40;91.70;;;;;;5055202;28;20111;-81
2023/01/08 10:02:00;;;;;;;13.55;6.68;;;-12.40;91.90;;;;;;5072976;28;20562;-80
2023/01/08 10:05:04;;;;;;;13.00;6.78;;;-12.40;92.20;;;;;;5079581;28;20032;-78
2023/01/08 10:08:07;;;;;;;13.93;5.63;;;-12.40;92.20;;;;;;5096950;28;20019;-78
2023/01/08 10:10:55;;;;;;;12.68;5.40;;;-12.40;92.40;;;;;;5097604;28;20024;-78
2023/01/08 10:13:39;;;;;;;7.75;5.47;;;-12.30;92.40;;;;;;5093695;28;20050;-81
2023/01/08 10:16:43;;;;;;;8.50;5.60;;;-12.30;92.50;;;;;;5075007;28;20035;-79
2023/01/08 10:19:46;;;;;;;11.38;7.32;;;-12.30;92.40;;;;;;5071556;28;20154;-79
2023/01/08 10:22:49;;;;;;;14.07;7.20;;;-12.30;92.50;;;;;;5089456;28;20024;-81
2023/01/08 10:25:52;;;;;;;10.63;6.47;;;-12.30;92.50;;;;;;5091998;28;20058;-79
2023/01/08 10:28:56;;;;;;;8.40;6.05;;;-12.30;92.40;;;;;;5088815;28;20028;-77
2023/01/08 10:31:59;;;;;;;10.82;6.50;;;-12.40;92.50;;;;;;5074675;28;20385;-79
2023/01/08 10:34:50;;;;;;;11.75;5.25;;;-12.40;92.60;;;;;;5068690;28;20504;-78
2023/01/08 10:37:54;;;;;;;12.02;5.95;;;-12.40;92.60;;;;;;5091314;28;20416;-80
2023/01/08 10:40:57;;;;;;;12.57;6.63;;;-12.40;92.80;;;;;;5082713;28;20024;-77
2023/01/08 10:43:53;;;;;;;12.23;7.05;;;-12.40;92.90;;;;;;5071018;28;20028;-78
2023/01/08 10:46:56;;;;;;;10.45;6.45;;;-12.30;93.00;;;;;;5079286;28;20568;-77
2023/01/08 10:49:42;;;;;;;11.30;6.13;;;-12.30;92.90;;;;;;5091480;28;20051;-79
2023/01/08 10:52:45;;;;;;;11.18;4.35;;;-12.30;92.90;;;;;;5086263;28;20052;-80
2023/01/08 10:55:49;;;;;;;9.73;6.10;;;-12.30;92.90;;;;;;5065831;28;20032;-81
2023/01/08 10:58:33;;;;;;;11.50;5.07;;;-12.40;92.90;;;;;;5091730;28;20452;-82
2023/01/08 11:01:37;;;;;;;10.13;6.18;;;-12.50;92.80;;;;;;5070979;28;20035;-82
2023/01/08 11:04:23;;;;;;;10.32;4.78;;;-12.60;92.90;;;;;;5093025;28;20071;-81
2023/01/08 11:07:26;;;;;;;12.60;7.93;;;-12.70;92.90;;;;;;5093107;28;20039;-80
2023/01/08 11:10:12;;;;;;;16.05;7.95;;;-12.70;93.10;;;;;;5091954;28;20028;-81
2023/01/08 11:12:58;;;;;;;9.15;6.22;;;-12.60;93.10;;;;;;5065612;28;20133;-80
2023/01/08 11:16:02;;;;;;;10.18;5.82;;;-12.60;93.20;;;;;;5084787;28;20377;-81
2023/01/08 11:19:08;;;;;;;9.48;5.53;;;-12.50;93.30;;;;;;5062349;28;20032;-81
2023/01/08 11:21:57;;;;;;;15.55;6.70;;;-12.50;93.20;;;;;;5074136;28;20119;-82
2023/01/08 11:25:00;;;;;;;13.43;7.13;;;-12.50;93.20;;;;;;5067428;28;20034;-81
2023/01/08 11:28:03;;;;;;;11.65;8.90;;;-12.50;93.20;;;;;;5054491;28;20032;-80
2023/01/08 11:31:07;;;;;;;18.88;8.00;;;-12.40;93.30;;;;;;5080709;28;20181;-82
2023/01/08 11:34:10;;;;;;;18.45;9.10;;;-12.40;93.30;;;;;;5096398;28;20058;-81
2023/01/08 11:37:13;;;;;;;14.98;7.97;;;-12.40;93.30;;;;;;5099891;28;20056;-84
2023/01/08 11:40:01;;;;;;;12.27;8.15;;;-12.30;93.30;;;;;;5080015;28;20039;-83
2023/01/08 11:43:04;;;;;;;10.48;6.93;;;-12.30;93.30;;;;;;5079012;28;20090;-82
2023/01/08 11:46:07;;;;;;;18.58;6.97;;;-12.20;93.40;;;;;;5067446;28;20047;-79
2023/01/08 11:49:10;;;;;;;9.75;4.93;;;-12.10;93.40;;;;;;5082068;28;20094;-80
2023/01/08 11:52:01;;;;;;;17.92;7.80;;;-12.00;93.40;;;;;;5079637;28;20016;-80
2023/01/08 11:54:58;;;;;;;16.58;7.43;;;-12.00;93.30;;;;;;5078234;28;20380;-79
2023/01/08 11:57:42;;;;;;;12.98;7.70;;;-12.00;93.40;;;;;;5074332;28;20032;-78
2023/01/08 12:00:45;;;;;;;11.05;6.60;;;-12.10;93.20;;;;;;5096021;28;20555;-79
2023/01/08 12:03:48;;;;;;;14.48;8.02;;;-12.10;93.30;;;;;;5097187;28;20041;-80
2023/01/08 12:06:35;;;;;;;18.45;8.07;;;-12.10;93.30;;;;;;5059408;28;20051;-79
2023/01/08 12:09:39;;;;;;;13.85;7.47;;;-12.10;93.30;;;;;;5095994;28;20058;-78
2023/01/08 12:12:23;;;;;;;14.63;8.63;;;-12.10;93.30;;;;;;5090237;28;20069;-81
2023/01/08 12:15:28;;;;;;;14.93;8.90;;;-12.20;93.20;;;;;;5093939;28;20028;-81
2023/01/08 12:18:31;;;;;;;15.68;8.27;;;-12.30;93.30;;;;;;5088126;28;20423;-81
2023/01/08 12:21:22;;;;;;;10.65;6.75;;;-12.30;93.40;;;;;;5092958;28;20028;-80
2023/01/08 12:24:25;;;;;;;11.85;5.75;;;-12.30;93.50;;;;;;5093323;28;20498;-82
2023/01/08 12:27:16;;;;;;;12.32;7.35;;;-12.30;93.60;;;;;;5098692;28;20035;-81
2023/01/08 12:30:20;;;;;;;11.88;8.65;;;-12.40;93.60;;;;;;5092700;28;20397;-77
2023/01/08 12:33:23;;;;;;;6.38;5.25;;;-12.30;93.70;;;;;;5090820;28;20027;-77
2023/01/08 12:36:28;;;;;;;12.10;7.40;;;-12.40;93.80;;;;;;5088345;28;20032;-79
2023/01/08 12:39:22;;;;;;;18.17;7.70;;;-12.30;93.90;;;;;;5093600;28;20024;-76
2023/01/08 12:42:27;;;;;;;10.85;7.38;;;-12.30;93.90;;;;;;5089429;28;20073;-78
2023/01/08 12:45:30;;;;;;;16.35;7.25;;;-12.30;94.00;;;;;;5082420;28;20111;-77
2023/01/08 12:48:33;;;;;;;15.75;6.97;;;-12.30;94.10;;;;;;5094265;28;20020;-76
2023/01/08 12:51:33;;;;;;;19.60;7.63;;;-12.30;94.10;;;;;;5094742;28;20023;-77
2023/01/08 12:54:36;;;;;;;13.25;7.28;;;-12.30;94.20;;;;;;5094111;28;20367;-76
2023/01/08 12:57:40;;;;;;;19.63;11.20;;;-12.30;94.20;;;;;;5094049;28;20023;-77
2023/01/08 13:00:28;;;;;;;19.35;8.40;;;-12.30;94.20;;;;;;5087583;28;20023;-76
2023/01/08 13:03:17;;;;;;;24.35;11.13;;;-12.30;94.20;;;;;;5058395;28;20036;-76
2023/01/08 13:06:10;;;;;;;13.35;7.13;;;-12.20;94.20;;;;;;5074823;28;20489;-75
2023/01/08 13:09:13;;;;;;;15.13;7.90;;;-12.20;94.20;;;;;;5091444;28;20016;-77
2023/01/08 13:12:16;;;;;;;18.35;8.07;;;-12.30;94.20;;;;;;5093216;28;20123;-77
2023/01/08 13:15:03;;;;;;;12.93;6.82;;;-12.30;94.20;;;;;;5093736;28;20103;-76
2023/01/08 13:17:29;;;;;;;;;;;-12.30;94.20;;;;;;5094008;28;20020;-77
2023/01/08 13:20:32;;;;;;;11.77;6.32;;;-12.30;94.20;;;;;;5092623;28;20278;-76
2023/01/08 13:23:37;;;;;;;18.55;7.80;;;-12.40;94.10;;;;;;5084521;28;20067;-78
2023/01/08 13:26:40;;;;;;;12.10;6.57;;;-12.40;94.10;;;;;;5093657;28;20043;-78
2023/01/08 13:29:43;;;;;;;19.30;8.82;;;-12.50;94.00;;;;;;5057715;28;20021;-75
2023/01/08 13:32:46;;;;;;;13.75;8.68;;;-12.60;94.00;;;;;;5087643;28;20029;-77
2023/01/08 13:35:49;;;;;;;9.18;5.57;;;-12.70;94.00;;;;;;5081589;28;20036;-82
2023/01/08 13:38:34;;;;;;;11.85;5.55;;;-12.70;94.10;;;;;;5091469;28;20039;-78
2023/01/08 13:41:30;;;;;;;18.73;6.78;;;-12.70;94.20;;;;;;5082207;28;20031;-78
2023/01/08 13:44:34;;;;;;;14.80;7.43;;;-12.70;94.30;;;;;;5079892;28;20033;-80
2023/01/08 13:47:37;;;;;;;13.45;6.75;;;-12.70;94.30;;;;;;5092490;28;20046;-80
2023/01/08 13:50:40;;;;;;;13.40;7.43;;;-12.70;94.30;;;;;;5085500;28;20027;-81
2023/01/08 13:53:43;;;;;;;19.40;8.02;;;-12.70;94.40;;;;;;5066032;28;20024;-80
2023/01/08 13:56:48;;;;;;;16.83;6.65;;;-12.70;94.40;;;;;;5090559;28;20039;-83
2023/01/08 13:59:51;;;;;;;16.38;8.30;;;-12.70;94.40;;;;;;5071146;28;20016;-78
2023/01/08 14:02:54;;;;;;;10.32;5.55;;;-12.60;94.40;;;;;;5092921;28;20043;-82
2023/01/08 14:05:38;;;;;;;12.70;5.22;;;-12.60;94.40;;;;;;5071273;28;20492;-80
2023/01/08 14:08:42;;;;;;;13.38;7.03;;;-12.70;94.30;;;;;;5069748;28;20027;-85
2023/01/08 14:11:27;;;;;;;11.88;6.90;;;-12.70;94.30;;;;;;5056653;28;20031;-80
2023/01/08 14:14:12;;;;;;;17.83;7.32;;;-12.80;94.30;;;;;;5072917;28;20027;-81
2023/01/08 14:16:57;;;;;;;11.73;7.07;;;-12.90;94.40;;;;;;5071325;28;20074;-81
2023/01/08 14:20:00;;;;;;;17.90;8.57;;;-12.90;94.50;;;;;;5072430;28;20094;-79
2023/01/08 14:23:04;;;;;;;13.88;7.05;;;-13.00;94.50;;;;;;5070061;28;20489;-80
2023/01/08 14:26:10;;;;;;;17.25;8.85;;;-12.90;94.60;;;;;;5062623;28;20159;-79
2023/01/08 14:28:55;;;;;;;;;;;-13.00;94.60;;;;;;5078485;28;20127;-81
2023/01/08 14:31:58;;;;;;;10.75;5.78;;;-13.00;94.70;;;;;;5054346;28;19904;-82
2023/01/08 14:35:08;;;;;;;13.43;6.57;;;-13.00;94.60;;;;;;5054569;28;20393;-81
2023/01/08 14:38:11;;;;;;;16.75;7.75;;;-12.90;94.70;;;;;;5064494;28;20032;-81
2023/01/08 14:41:14;;;;;;;14.70;7.70;;;-12.90;95.00;;;;;;5072289;28;20031;-81
2023/01/08 14:43:45;;;;;;;7.55;5.15;;;-12.80;94.80;;;;;;5059192;28;20082;-82
2023/01/08 14:46:49;;;;;;;9.13;5.35;;;-12.80;94.80;;;;;;5067327;28;20449;-82
2023/01/08 14:49:52;;;;;;;12.63;6.28;;;-12.80;94.80;;;;;;5037463;28;20116;-88
2023/01/08 14:52:37;;;;;;;15.23;7.78;;;-12.80;94.90;;;;;;5079053;28;20080;-89
2023/01/08 14:55:40;;;;;;;14.90;7.35;;;-12.80;94.90;;;;;;5056041;28;20024;-79